sensor_id;sensor_type;location;lat;lon;timestamp;temperature;humidity
16635;DHT22;8431;52.458;9.998;2024-03-07T00:02:08;1.70;99.90
16635;DHT22;8431;52.458;9.998;2024-03-07T00:04:36;1.80;99.90
16635;DHT22;8431;52.458;9.998;2024-03-07T00:07:03;1.70;99.90
16635;DHT22;8431;52.458;9.998;2024-03-07T00:09:31;1.60;99.90
16635;DHT22;8431;52.458;9.998;2024-03-07T00:11:59;1.50;99.90
16635;DHT22;8431;52.458;9.998;2024-03-07T00:14:25;1.50;99.90
16635;DHT22;8431;52.458;9.998;2024-03-07T00:16:56;1.40;99.90
16635;DHT22;8431;52.458;9.998;2024-03-07T00:19:25;1.20;99.90
16635;DHT22;8431;52.458;9.998;2024-03-07T00:21:54;1.30;99.90
16635;DHT22;8431;52.458;9.998;2024-03-07T00:24:24;1.40;99.90
16635;DHT22;8431;52.458;9.998;2024-03-07T00:26:53;1.50;99.90
16635;DHT22;8431;52.458;9.998;2024-03-07T00:29:19;1.40;99.90
16635;DHT22;8431;52.458;9.998;2024-03-07T00:31:47;1.40;99.90
16635;DHT22;8431;52.458;9.998;2024-03-07T00:34:14;1.20;99.90
16635;DHT22;8431;52.458;9.998;2024-03-07T00:36:42;1.10;99.90
16635;DHT22;8431;52.458;9.998;2024-03-07T00:39:10;1.00;99.90
16635;DHT22;8431;52.458;9.998;2024-03-07T00:41:38;0.90;99.90
16635;DHT22;8431;52.458;9.998;2024-03-07T00:44:05;0.80;99.90
16635;DHT22;8431;52.458;9.998;2024-03-07T00:46:31;0.70;99.90
16635;DHT22;8431;52.458;9.998;2024-03-07T00:48:58;0.70;99.90
16635;DHT22;8431;52.458;9.998;2024-03-07T00:51:25;0.80;99.90
16635;DHT22;8431;52.458;9.998;2024-03-07T00:53:52;0.80;99.90
16635;DHT22;8431;52.458;9.998;2024-03-07T00:56:20;0.80;99.90
16635;DHT22;8431;52.458;9.998;2024-03-07T00:58:48;0.80;99.90
16635;DHT22;8431;52.458;9.998;2024-03-07T01:01:15;0.90;99.90
16635;DHT22;8431;52.458;9.998;2024-03-07T01:03:44;1.00;99.90
16635;DHT22;8431;52.458;9.998;2024-03-07T01:06:11;1.00;99.90
16635;DHT22;8431;52.458;9.998;2024-03-07T01:08:38;0.90;99.90
16635;DHT22;8431;52.458;9.998;2024-03-07T01:11:05;0.90;99.90
16635;DHT22;8431;52.458;9.998;2024-03-07T01:13:36;0.90;99.90
16635;DHT22;8431;52.458;9.998;2024-03-07T01:16:04;0.90;99.90
16635;DHT22;8431;52.458;9.998;2024-03-07T01:18:31;0.90;99.90
16635;DHT22;8431;52.458;9.998;2024-03-07T01:20:58;0.90;99.90
16635;DHT22;8431;52.458;9.998;2024-03-07T01:23:25;0.80;99.90
16635;DHT22;8431;52.458;9.998;2024-03-07T01:25:54;0.80;99.90
16635;DHT22;8431;52.458;9.998;2024-03-07T01:28:22;0.80;99.90
16635;DHT22;8431;52.458;9.998;2024-03-07T01:30:50;0.70;99.90
16635;DHT22;8431;52.458;9.998;2024-03-07T01:33:18;0.80;99.90
16635;DHT22;8431;52.458;9.998;2024-03-07T01:35:45;0.70;99.90
16635;DHT22;8431;52.458;9.998;2024-03-07T01:38:12;0.60;99.90
16635;DHT22;8431;52.458;9.998;2024-03-07T01:40:39;0.60;99.90
16635;DHT22;8431;52.458;9.998;2024-03-07T01:43:06;0.60;99.90
16635;DHT22;8431;52.458;9.998;2024-03-07T01:45:33;0.70;99.90
16635;DHT22;8431;52.458;9.998;2024-03-07T01:48:04;0.60;99.90
16635;DHT22;8431;52.458;9.998;2024-03-07T01:50:31;0.60;99.90
16635;DHT22;8431;52.458;9.998;2024-03-07T01:52:59;0.40;99.90
16635;DHT22;8431;52.458;9.998;2024-03-07T01:55:27;0.30;99.90
16635;DHT22;8431;52.458;9.998;2024-03-07T01:57:56;0.40;99.90
16635;DHT22;8431;52.458;9.998;2024-03-07T02:00:25;0.40;99.90
16635;DHT22;8431;52.458;9.998;2024-03-07T02:02:53;0.50;99.90
16635;DHT22;8431;52.458;9.998;2024-03-07T02:05:21;0.40;99.90
16635;DHT22;8431;52.458;9.998;2024-03-07T02:07:48;0.40;99.90
16635;DHT22;8431;52.458;9.998;2024-03-07T02:10:15;0.50;99.90
16635;DHT22;8431;52.458;9.998;2024-03-07T02:12:43;0.50;99.90
16635;DHT22;8431;52.458;9.998;2024-03-07T02:15:10;0.50;99.90
16635;DHT22;8431;52.458;9.998;2024-03-07T02:17:36;0.50;99.90
16635;DHT22;8431;52.458;9.998;2024-03-07T02:20:04;0.40;99.90
16635;DHT22;8431;52.458;9.998;2024-03-07T02:22:34;0.40;99.90
16635;DHT22;8431;52.458;9.998;2024-03-07T02:25:01;0.30;99.90
16635;DHT22;8431;52.458;9.998;2024-03-07T02:27:28;0.30;99.90
16635;DHT22;8431;52.458;9.998;2024-03-07T02:29:55;0.50;99.90
16635;DHT22;8431;52.458;9.998;2024-03-07T02:32:22;0.50;99.90
16635;DHT22;8431;52.458;9.998;2024-03-07T02:34:49;0.50;99.90
16635;DHT22;8431;52.458;9.998;2024-03-07T02:37:16;0.60;99.90
16635;DHT22;8431;52.458;9.998;2024-03-07T02:39:44;0.60;99.90
16635;DHT22;8431;52.458;9.998;2024-03-07T02:42:11;0.60;99.90
16635;DHT22;8431;52.458;9.998;2024-03-07T02:44:37;0.70;99.90
16635;DHT22;8431;52.458;9.998;2024-03-07T02:47:05;0.60;99.90
16635;DHT22;8431;52.458;9.998;2024-03-07T02:49:32;0.70;99.90
16635;DHT22;8431;52.458;9.998;2024-03-07T02:51:59;0.80;99.90
16635;DHT22;8431;52.458;9.998;2024-03-07T02:54:28;0.80;99.90
16635;DHT22;8431;52.458;9.998;2024-03-07T02:57:02;0.60;99.90
16635;DHT22;8431;52.458;9.998;2024-03-07T02:59:29;0.60;99.90
16635;DHT22;8431;52.458;9.998;2024-03-07T03:01:57;0.60;99.90
16635;DHT22;8431;52.458;9.998;2024-03-07T03:04:24;0.60;99.90
16635;DHT22;8431;52.458;9.998;2024-03-07T03:06:51;0.70;99.90
16635;DHT22;8431;52.458;9.998;2024-03-07T03:09:18;0.90;99.90
16635;DHT22;8431;52.458;9.998;2024-03-07T03:11:45;0.90;99.90
16635;DHT22;8431;52.458;9.998;2024-03-07T03:14:13;0.90;99.90
16635;DHT22;8431;52.458;9.998;2024-03-07T03:16:41;0.80;99.90
16635;DHT22;8431;52.458;9.998;2024-03-07T03:19:09;0.90;99.90
16635;DHT22;8431;52.458;9.998;2024-03-07T03:21:36;0.80;99.90
16635;DHT22;8431;52.458;9.998;2024-03-07T03:24:03;0.70;99.90
16635;DHT22;8431;52.458;9.998;2024-03-07T03:26:30;0.60;99.90
16635;DHT22;8431;52.458;9.998;2024-03-07T03:28:58;0.70;99.90
16635;DHT22;8431;52.458;9.998;2024-03-07T03:31:26;0.60;99.90
16635;DHT22;8431;52.458;9.998;2024-03-07T03:33:53;0.70;99.90
16635;DHT22;8431;52.458;9.998;2024-03-07T03:36:38;0.90;99.90
16635;DHT22;8431;52.458;9.998;2024-03-07T03:39:05;0.80;99.90
16635;DHT22;8431;52.458;9.998;2024-03-07T03:41:36;0.90;99.90
16635;DHT22;8431;52.458;9.998;2024-03-07T03:44:03;0.80;99.90
16635;DHT22;8431;52.458;9.998;2024-03-07T03:46:33;0.80;99.90
16635;DHT22;8431;52.458;9.998;2024-03-07T03:49:00;0.90;99.90
16635;DHT22;8431;52.458;9.998;2024-03-07T03:51:26;0.90;99.90
16635;DHT22;8431;52.458;9.998;2024-03-07T03:53:53;1.10;99.90
16635;DHT22;8431;52.458;9.998;2024-03-07T03:56:20;1.00;99.90
16635;DHT22;8431;52.458;9.998;2024-03-07T03:58:47;1.20;99.90
16635;DHT22;8431;52.458;9.998;2024-03-07T04:01:14;1.20;99.90
16635;DHT22;8431;52.458;9.998;2024-03-07T04:03:43;1.20;99.90
16635;DHT22;8431;52.458;9.998;2024-03-07T04:06:13;1.30;99.90
16635;DHT22;8431;52.458;9.998;2024-03-07T04:08:40;1.50;99.90
16635;DHT22;8431;52.458;9.998;2024-03-07T04:11:08;1.50;99.90
16635;DHT22;8431;52.458;9.998;2024-03-07T04:13:35;1.50;99.90
16635;DHT22;8431;52.458;9.998;2024-03-07T04:16:03;1.40;99.90
16635;DHT22;8431;52.458;9.998;2024-03-07T04:18:30;1.30;99.90
16635;DHT22;8431;52.458;9.998;2024-03-07T04:20:59;1.30;99.90
16635;DHT22;8431;52.458;9.998;2024-03-07T04:23:26;1.40;99.90
16635;DHT22;8431;52.458;9.998;2024-03-07T04:25:53;1.40;99.90
16635;DHT22;8431;52.458;9.998;2024-03-07T04:28:24;1.50;99.90
16635;DHT22;8431;52.458;9.998;2024-03-07T04:31:10;1.50;99.90
16635;DHT22;8431;52.458;9.998;2024-03-07T04:33:37;1.50;99.90
16635;DHT22;8431;52.458;9.998;2024-03-07T04:36:06;1.30;99.90
16635;DHT22;8431;52.458;9.998;2024-03-07T04:38:33;1.30;99.90
16635;DHT22;8431;52.458;9.998;2024-03-07T04:41:00;1.40;99.90
16635;DHT22;8431;52.458;9.998;2024-03-07T04:43:26;1.40;99.90
16635;DHT22;8431;52.458;9.998;2024-03-07T04:45:53;1.50;99.90
16635;DHT22;8431;52.458;9.998;2024-03-07T04:48:21;1.60;99.90
16635;DHT22;8431;52.458;9.998;2024-03-07T04:50:48;1.60;99.90
16635;DHT22;8431;52.458;9.998;2024-03-07T04:53:16;1.50;99.90
16635;DHT22;8431;52.458;9.998;2024-03-07T04:55:43;1.50;99.90
16635;DHT22;8431;52.458;9.998;2024-03-07T04:58:09;1.80;99.90
16635;DHT22;8431;52.458;9.998;2024-03-07T05:00:36;1.90;99.90
16635;DHT22;8431;52.458;9.998;2024-03-07T05:03:04;2.00;99.90
16635;DHT22;8431;52.458;9.998;2024-03-07T05:05:30;2.10;99.90
16635;DHT22;8431;52.458;9.998;2024-03-07T05:07:57;2.00;99.90
16635;DHT22;8431;52.458;9.998;2024-03-07T05:10:25;1.90;99.90
16635;DHT22;8431;52.458;9.998;2024-03-07T05:12:55;1.90;99.90
16635;DHT22;8431;52.458;9.998;2024-03-07T05:15:24;1.90;99.90
16635;DHT22;8431;52.458;9.998;2024-03-07T05:17:52;1.80;99.90
16635;DHT22;8431;52.458;9.998;2024-03-07T05:20:22;2.00;99.90
16635;DHT22;8431;52.458;9.998;2024-03-07T05:22:50;2.10;99.90
16635;DHT22;8431;52.458;9.998;2024-03-07T05:25:17;2.10;99.90
16635;DHT22;8431;52.458;9.998;2024-03-07T05:27:46;2.10;99.90
16635;DHT22;8431;52.458;9.998;2024-03-07T05:30:16;2.00;99.90
16635;DHT22;8431;52.458;9.998;2024-03-07T05:32:43;2.10;99.90
16635;DHT22;8431;52.458;9.998;2024-03-07T05:35:13;2.20;99.90
16635;DHT22;8431;52.458;9.998;2024-03-07T05:37:40;2.10;99.90
16635;DHT22;8431;52.458;9.998;2024-03-07T05:40:13;2.30;99.90
16635;DHT22;8431;52.458;9.998;2024-03-07T05:42:41;2.20;99.90
16635;DHT22;8431;52.458;9.998;2024-03-07T05:45:09;2.30;99.90
16635;DHT22;8431;52.458;9.998;2024-03-07T05:47:36;2.30;99.90
16635;DHT22;8431;52.458;9.998;2024-03-07T05:50:05;2.20;99.90
16635;DHT22;8431;52.458;9.998;2024-03-07T05:52:34;2.20;99.90
16635;DHT22;8431;52.458;9.998;2024-03-07T05:55:01;2.40;99.90
16635;DHT22;8431;52.458;9.998;2024-03-07T05:57:28;2.50;99.90
16635;DHT22;8431;52.458;9.998;2024-03-07T05:59:54;2.60;99.90
16635;DHT22;8431;52.458;9.998;2024-03-07T06:02:23;2.50;99.90
16635;DHT22;8431;52.458;9.998;2024-03-07T06:04:51;2.40;99.90
16635;DHT22;8431;52.458;9.998;2024-03-07T06:07:21;2.50;99.90
16635;DHT22;8431;52.458;9.998;2024-03-07T06:09:48;2.50;99.90
16635;DHT22;8431;52.458;9.998;2024-03-07T06:12:16;2.40;99.90
16635;DHT22;8431;52.458;9.998;2024-03-07T06:14:43;2.40;99.90
16635;DHT22;8431;52.458;9.998;2024-03-07T06:17:16;2.50;99.90
16635;DHT22;8431;52.458;9.998;2024-03-07T06:19:48;2.50;99.90
16635;DHT22;8431;52.458;9.998;2024-03-07T06:22:15;2.60;99.90
16635;DHT22;8431;52.458;9.998;2024-03-07T06:25:00;2.80;99.90
16635;DHT22;8431;52.458;9.998;2024-03-07T06:27:32;2.80;99.90
16635;DHT22;8431;52.458;9.998;2024-03-07T06:30:04;2.90;99.90
16635;DHT22;8431;52.458;9.998;2024-03-07T06:32:35;2.90;99.90
16635;DHT22;8431;52.458;9.998;2024-03-07T06:35:05;2.90;99.90
16635;DHT22;8431;52.458;9.998;2024-03-07T06:37:31;3.00;99.90
16635;DHT22;8431;52.458;9.998;2024-03-07T06:40:03;3.00;99.90
16635;DHT22;8431;52.458;9.998;2024-03-07T06:42:35;3.00;99.90
16635;DHT22;8431;52.458;9.998;2024-03-07T06:45:03;3.10;99.90
16635;DHT22;8431;52.458;9.998;2024-03-07T06:47:31;3.20;99.90
16635;DHT22;8431;52.458;9.998;2024-03-07T06:49:58;3.40;99.90
16635;DHT22;8431;52.458;9.998;2024-03-07T06:52:26;3.50;99.90
16635;DHT22;8431;52.458;9.998;2024-03-07T06:54:53;3.50;99.90
16635;DHT22;8431;52.458;9.998;2024-03-07T06:57:20;3.60;99.90
16635;DHT22;8431;52.458;9.998;2024-03-07T06:59:47;3.60;99.90
16635;DHT22;8431;52.458;9.998;2024-03-07T07:02:14;3.60;99.90
16635;DHT22;8431;52.458;9.998;2024-03-07T07:04:41;3.70;99.90
16635;DHT22;8431;52.458;9.998;2024-03-07T07:07:08;3.80;99.90
16635;DHT22;8431;52.458;9.998;2024-03-07T07:09:37;3.80;99.90
16635;DHT22;8431;52.458;9.998;2024-03-07T07:12:04;3.80;99.90
16635;DHT22;8431;52.458;9.998;2024-03-07T07:14:31;3.90;99.90
16635;DHT22;8431;52.458;9.998;2024-03-07T07:16:58;3.90;99.90
16635;DHT22;8431;52.458;9.998;2024-03-07T07:19:25;4.00;99.90
16635;DHT22;8431;52.458;9.998;2024-03-07T07:21:52;4.00;99.90
16635;DHT22;8431;52.458;9.998;2024-03-07T07:24:20;4.00;99.90
16635;DHT22;8431;52.458;9.998;2024-03-07T07:26:50;4.00;99.90
16635;DHT22;8431;52.458;9.998;2024-03-07T07:29:17;4.10;99.90
16635;DHT22;8431;52.458;9.998;2024-03-07T07:31:44;4.00;99.90
16635;DHT22;8431;52.458;9.998;2024-03-07T07:34:11;4.10;99.90
16635;DHT22;8431;52.458;9.998;2024-03-07T07:36:38;4.20;99.90
16635;DHT22;8431;52.458;9.998;2024-03-07T07:39:06;4.30;99.90
16635;DHT22;8431;52.458;9.998;2024-03-07T07:41:40;4.20;99.90
16635;DHT22;8431;52.458;9.998;2024-03-07T07:44:08;4.30;99.90
16635;DHT22;8431;52.458;9.998;2024-03-07T07:46:35;4.30;99.90
16635;DHT22;8431;52.458;9.998;2024-03-07T07:49:04;4.30;99.90
16635;DHT22;8431;52.458;9.998;2024-03-07T07:51:31;4.30;99.90
16635;DHT22;8431;52.458;9.998;2024-03-07T07:53:59;4.30;99.90
16635;DHT22;8431;52.458;9.998;2024-03-07T07:56:26;4.30;99.90
16635;DHT22;8431;52.458;9.998;2024-03-07T07:58:54;4.30;99.90
16635;DHT22;8431;52.458;9.998;2024-03-07T08:01:22;4.30;99.90
16635;DHT22;8431;52.458;9.998;2024-03-07T08:03:49;4.40;99.90
16635;DHT22;8431;52.458;9.998;2024-03-07T08:06:16;4.40;99.90
16635;DHT22;8431;52.458;9.998;2024-03-07T08:08:43;4.50;99.90
16635;DHT22;8431;52.458;9.998;2024-03-07T08:11:12;4.40;99.90
16635;DHT22;8431;52.458;9.998;2024-03-07T08:13:42;4.40;99.90
16635;DHT22;8431;52.458;9.998;2024-03-07T08:16:10;4.50;99.90
16635;DHT22;8431;52.458;9.998;2024-03-07T08:18:38;4.40;99.90
16635;DHT22;8431;52.458;9.998;2024-03-07T08:21:05;4.50;99.90
16635;DHT22;8431;52.458;9.998;2024-03-07T08:23:33;4.50;99.90
16635;DHT22;8431;52.458;9.998;2024-03-07T08:26:00;4.50;99.90
16635;DHT22;8431;52.458;9.998;2024-03-07T08:28:27;4.60;99.90
16635;DHT22;8431;52.458;9.998;2024-03-07T08:30:54;4.70;99.90
16635;DHT22;8431;52.458;9.998;2024-03-07T08:33:21;4.90;99.90
16635;DHT22;8431;52.458;9.998;2024-03-07T08:35:49;5.10;99.90
16635;DHT22;8431;52.458;9.998;2024-03-07T08:38:18;5.20;99.90
16635;DHT22;8431;52.458;9.998;2024-03-07T08:40:46;5.30;99.90
16635;DHT22;8431;52.458;9.998;2024-03-07T08:43:24;5.20;99.90
16635;DHT22;8431;52.458;9.998;2024-03-07T08:45:56;5.10;99.90
16635;DHT22;8431;52.458;9.998;2024-03-07T08:48:23;5.30;99.90
16635;DHT22;8431;52.458;9.998;2024-03-07T08:50:56;5.20;99.90
16635;DHT22;8431;52.458;9.998;2024-03-07T08:53:40;5.10;99.90
16635;DHT22;8431;52.458;9.998;2024-03-07T08:56:07;5.00;99.90
16635;DHT22;8431;52.458;9.998;2024-03-07T08:58:38;5.00;99.90
16635;DHT22;8431;52.458;9.998;2024-03-07T09:01:05;4.90;99.90
16635;DHT22;8431;52.458;9.998;2024-03-07T09:03:32;4.80;99.90
16635;DHT22;8431;52.458;9.998;2024-03-07T09:06:01;4.80;99.90
16635;DHT22;8431;52.458;9.998;2024-03-07T09:08:37;4.80;99.90
16635;DHT22;8431;52.458;9.998;2024-03-07T09:11:07;4.80;99.90
16635;DHT22;8431;52.458;9.998;2024-03-07T09:13:34;4.80;99.90
16635;DHT22;8431;52.458;9.998;2024-03-07T09:16:01;4.80;99.90
16635;DHT22;8431;52.458;9.998;2024-03-07T09:18:30;4.70;99.90
16635;DHT22;8431;52.458;9.998;2024-03-07T09:20:57;4.70;99.90
16635;DHT22;8431;52.458;9.998;2024-03-07T09:23:25;4.60;99.90
16635;DHT22;8431;52.458;9.998;2024-03-07T09:25:52;4.50;99.90
16635;DHT22;8431;52.458;9.998;2024-03-07T09:28:19;4.50;99.90
16635;DHT22;8431;52.458;9.998;2024-03-07T09:30:47;4.50;99.90
16635;DHT22;8431;52.458;9.998;2024-03-07T09:33:14;4.60;99.90
16635;DHT22;8431;52.458;9.998;2024-03-07T09:35:45;4.60;99.90
16635;DHT22;8431;52.458;9.998;2024-03-07T09:38:12;4.70;99.90
16635;DHT22;8431;52.458;9.998;2024-03-07T09:40:40;4.60;99.90
16635;DHT22;8431;52.458;9.998;2024-03-07T09:43:07;4.50;99.90
16635;DHT22;8431;52.458;9.998;2024-03-07T09:45:37;4.40;99.90
16635;DHT22;8431;52.458;9.998;2024-03-07T09:48:06;4.50;99.90
16635;DHT22;8431;52.458;9.998;2024-03-07T09:53:13;4.50;99.90
16635;DHT22;8431;52.458;9.998;2024-03-07T09:55:44;4.50;99.90
16635;DHT22;8431;52.458;9.998;2024-03-07T09:58:13;4.40;99.90
16635;DHT22;8431;52.458;9.998;2024-03-07T10:00:42;4.50;99.90
16635;DHT22;8431;52.458;9.998;2024-03-07T10:03:09;4.50;99.90
16635;DHT22;8431;52.458;9.998;2024-03-07T10:05:39;4.40;99.90
16635;DHT22;8431;52.458;9.998;2024-03-07T10:08:06;4.40;99.90
16635;DHT22;8431;52.458;9.998;2024-03-07T10:10:33;4.50;99.90
16635;DHT22;8431;52.458;9.998;2024-03-07T10:13:05;4.50;99.90
16635;DHT22;8431;52.458;9.998;2024-03-07T10:15:35;4.40;99.90
16635;DHT22;8431;52.458;9.998;2024-03-07T10:18:07;4.30;99.90
16635;DHT22;8431;52.458;9.998;2024-03-07T10:20:36;4.30;99.90
16635;DHT22;8431;52.458;9.998;2024-03-07T10:23:07;4.40;99.90
16635;DHT22;8431;52.458;9.998;2024-03-07T10:25:54;4.40;99.90
16635;DHT22;8431;52.458;9.998;2024-03-07T10:28:32;4.50;99.90
16635;DHT22;8431;52.458;9.998;2024-03-07T10:31:27;4.60;99.90
16635;DHT22;8431;52.458;9.998;2024-03-07T10:33:59;4.80;99.90
16635;DHT22;8431;52.458;9.998;2024-03-07T10:36:27;4.80;99.90
16635;DHT22;8431;52.458;9.998;2024-03-07T10:38:56;4.90;99.90
16635;DHT22;8431;52.458;9.998;2024-03-07T10:41:28;5.00;99.90
16635;DHT22;8431;52.458;9.998;2024-03-07T10:44:00;5.00;99.90
16635;DHT22;8431;52.458;9.998;2024-03-07T10:46:28;5.00;99.90
16635;DHT22;8431;52.458;9.998;2024-03-07T10:48:55;5.30;99.90
16635;DHT22;8431;52.458;9.998;2024-03-07T10:51:31;5.40;99.90
16635;DHT22;8431;52.458;9.998;2024-03-07T10:54:08;5.40;99.90
16635;DHT22;8431;52.458;9.998;2024-03-07T10:56:49;5.50;99.90
16635;DHT22;8431;52.458;9.998;2024-03-07T10:59:22;5.80;99.90
16635;DHT22;8431;52.458;9.998;2024-03-07T11:01:59;6.00;99.90
16635;DHT22;8431;52.458;9.998;2024-03-07T11:04:26;6.00;99.90
16635;DHT22;8431;52.458;9.998;2024-03-07T11:06:54;6.10;99.90
16635;DHT22;8431;52.458;9.998;2024-03-07T11:09:22;5.90;99.90
16635;DHT22;8431;52.458;9.998;2024-03-07T11:11:49;6.00;99.90
16635;DHT22;8431;52.458;9.998;2024-03-07T11:14:24;5.80;99.90
16635;DHT22;8431;52.458;9.998;2024-03-07T11:16:56;5.80;99.90
16635;DHT22;8431;52.458;9.998;2024-03-07T11:19:31;6.10;99.90
16635;DHT22;8431;52.458;9.998;2024-03-07T11:22:02;6.30;99.90
16635;DHT22;8431;52.458;9.998;2024-03-07T11:24:43;6.00;99.90
16635;DHT22;8431;52.458;9.998;2024-03-07T11:27:13;6.00;99.90
16635;DHT22;8431;52.458;9.998;2024-03-07T11:29:48;6.00;99.90
16635;DHT22;8431;52.458;9.998;2024-03-07T11:32:48;6.00;99.90
16635;DHT22;8431;52.458;9.998;2024-03-07T11:35:21;6.20;99.90
16635;DHT22;8431;52.458;9.998;2024-03-07T11:38:01;6.20;99.90
16635;DHT22;8431;52.458;9.998;2024-03-07T11:40:50;6.40;99.90
16635;DHT22;8431;52.458;9.998;2024-03-07T11:43:17;6.40;99.90
16635;DHT22;8431;52.458;9.998;2024-03-07T11:46:09;6.30;99.90
16635;DHT22;8431;52.458;9.998;2024-03-07T11:48:42;6.20;99.90
16635;DHT22;8431;52.458;9.998;2024-03-07T11:51:12;6.30;99.90
16635;DHT22;8431;52.458;9.998;2024-03-07T11:53:40;6.40;99.90
16635;DHT22;8431;52.458;9.998;2024-03-07T11:56:08;6.30;99.90
16635;DHT22;8431;52.458;9.998;2024-03-07T11:58:52;6.30;99.90
16635;DHT22;8431;52.458;9.998;2024-03-07T12:01:26;6.20;99.90
16635;DHT22;8431;52.458;9.998;2024-03-07T12:03:56;6.10;99.90
16635;DHT22;8431;52.458;9.998;2024-03-07T12:06:23;6.10;99.90
16635;DHT22;8431;52.458;9.998;2024-03-07T12:08:50;6.20;99.90
16635;DHT22;8431;52.458;9.998;2024-03-07T12:11:18;6.20;99.90
16635;DHT22;8431;52.458;9.998;2024-03-07T12:13:47;6.20;99.90
16635;DHT22;8431;52.458;9.998;2024-03-07T12:16:20;6.20;99.90
16635;DHT22;8431;52.458;9.998;2024-03-07T12:18:48;6.60;99.90
16635;DHT22;8431;52.458;9.998;2024-03-07T12:21:15;6.80;99.90
16635;DHT22;8431;52.458;9.998;2024-03-07T12:23:46;6.90;99.90
16635;DHT22;8431;52.458;9.998;2024-03-07T12:26:20;7.10;99.90
16635;DHT22;8431;52.458;9.998;2024-03-07T12:28:50;7.10;99.90
16635;DHT22;8431;52.458;9.998;2024-03-07T12:31:19;7.20;99.90
16635;DHT22;8431;52.458;9.998;2024-03-07T12:33:50;7.10;99.90
16635;DHT22;8431;52.458;9.998;2024-03-07T12:36:17;6.90;99.90
16635;DHT22;8431;52.458;9.998;2024-03-07T12:38:54;6.80;99.90
16635;DHT22;8431;52.458;9.998;2024-03-07T12:41:22;6.40;99.90
16635;DHT22;8431;52.458;9.998;2024-03-07T12:43:49;6.60;99.90
16635;DHT22;8431;52.458;9.998;2024-03-07T12:46:17;6.90;99.90
16635;DHT22;8431;52.458;9.998;2024-03-07T12:48:44;6.70;99.90
16635;DHT22;8431;52.458;9.998;2024-03-07T12:51:12;6.50;99.90
16635;DHT22;8431;52.458;9.998;2024-03-07T12:53:42;6.40;99.90
16635;DHT22;8431;52.458;9.998;2024-03-07T12:56:09;6.40;99.90
16635;DHT22;8431;52.458;9.998;2024-03-07T12:58:36;6.70;99.90
16635;DHT22;8431;52.458;9.998;2024-03-07T13:01:06;7.00;99.90
16635;DHT22;8431;52.458;9.998;2024-03-07T13:03:36;7.10;99.90
16635;DHT22;8431;52.458;9.998;2024-03-07T13:06:08;6.80;99.90
16635;DHT22;8431;52.458;9.998;2024-03-07T13:08:47;6.80;99.90
16635;DHT22;8431;52.458;9.998;2024-03-07T13:11:14;6.70;99.90
16635;DHT22;8431;52.458;9.998;2024-03-07T13:13:41;6.80;99.90
16635;DHT22;8431;52.458;9.998;2024-03-07T13:16:08;7.10;99.90
16635;DHT22;8431;52.458;9.998;2024-03-07T13:18:37;7.10;99.90
16635;DHT22;8431;52.458;9.998;2024-03-07T13:21:04;7.00;99.90
16635;DHT22;8431;52.458;9.998;2024-03-07T13:23:32;6.60;99.90
16635;DHT22;8431;52.458;9.998;2024-03-07T13:26:01;6.60;99.90
16635;DHT22;8431;52.458;9.998;2024-03-07T13:28:33;6.70;99.90
16635;DHT22;8431;52.458;9.998;2024-03-07T13:31:03;6.70;99.90
16635;DHT22;8431;52.458;9.998;2024-03-07T13:33:32;6.70;99.90
16635;DHT22;8431;52.458;9.998;2024-03-07T13:36:01;6.70;99.90
16635;DHT22;8431;52.458;9.998;2024-03-07T13:38:29;6.80;99.90
16635;DHT22;8431;52.458;9.998;2024-03-07T13:40:56;6.90;99.90
16635;DHT22;8431;52.458;9.998;2024-03-07T13:43:24;6.70;99.90
16635;DHT22;8431;52.458;9.998;2024-03-07T13:45:51;6.70;99.90
16635;DHT22;8431;52.458;9.998;2024-03-07T13:48:18;6.70;99.90
16635;DHT22;8431;52.458;9.998;2024-03-07T13:50:45;6.80;99.90
16635;DHT22;8431;52.458;9.998;2024-03-07T13:53:14;7.30;99.90
16635;DHT22;8431;52.458;9.998;2024-03-07T13:55:55;7.20;99.50
16635;DHT22;8431;52.458;9.998;2024-03-07T13:59:00;7.20;98.60
16635;DHT22;8431;52.458;9.998;2024-03-07T14:01:43;7.10;99.70
16635;DHT22;8431;52.458;9.998;2024-03-07T14:04:51;6.70;99.90
16635;DHT22;8431;52.458;9.998;2024-03-07T14:07:45;6.50;99.90
16635;DHT22;8431;52.458;9.998;2024-03-07T14:13:30;6.60;99.90
16635;DHT22;8431;52.458;9.998;2024-03-07T14:16:31;6.60;99.90
16635;DHT22;8431;52.458;9.998;2024-03-07T14:19:31;6.80;99.60
16635;DHT22;8431;52.458;9.998;2024-03-07T14:22:13;6.90;98.70
16635;DHT22;8431;52.458;9.998;2024-03-07T14:25:18;7.20;99.90
16635;DHT22;8431;52.458;9.998;2024-03-07T14:28:13;7.50;99.60
16635;DHT22;8431;52.458;9.998;2024-03-07T14:30:45;7.40;99.30
16635;DHT22;8431;52.458;9.998;2024-03-07T14:33:28;6.80;99.90
16635;DHT22;8431;52.458;9.998;2024-03-07T14:36:01;6.60;99.90
16635;DHT22;8431;52.458;9.998;2024-03-07T14:38:43;6.40;99.90
16635;DHT22;8431;52.458;9.998;2024-03-07T14:41:11;6.20;99.90
16635;DHT22;8431;52.458;9.998;2024-03-07T14:43:43;6.20;99.90
16635;DHT22;8431;52.458;9.998;2024-03-07T14:46:15;6.20;99.90
16635;DHT22;8431;52.458;9.998;2024-03-07T14:48:45;6.30;99.90
16635;DHT22;8431;52.458;9.998;2024-03-07T14:51:17;6.40;99.90
16635;DHT22;8431;52.458;9.998;2024-03-07T14:53:47;6.40;99.90
16635;DHT22;8431;52.458;9.998;2024-03-07T14:56:16;6.50;99.90
16635;DHT22;8431;52.458;9.998;2024-03-07T14:58:45;6.70;99.90
16635;DHT22;8431;52.458;9.998;2024-03-07T15:01:12;6.90;99.90
16635;DHT22;8431;52.458;9.998;2024-03-07T15:03:41;7.20;99.90
16635;DHT22;8431;52.458;9.998;2024-03-07T15:06:12;7.20;99.80
16635;DHT22;8431;52.458;9.998;2024-03-07T15:08:42;7.20;99.90
16635;DHT22;8431;52.458;9.998;2024-03-07T15:11:12;6.90;99.90
16635;DHT22;8431;52.458;9.998;2024-03-07T15:13:42;6.60;99.40
16635;DHT22;8431;52.458;9.998;2024-03-07T15:16:11;6.50;98.90
16635;DHT22;8431;52.458;9.998;2024-03-07T15:18:38;6.30;99.90
16635;DHT22;8431;52.458;9.998;2024-03-07T15:21:04;6.20;99.90
16635;DHT22;8431;52.458;9.998;2024-03-07T15:23:36;6.20;99.90
16635;DHT22;8431;52.458;9.998;2024-03-07T15:26:03;6.40;99.90
16635;DHT22;8431;52.458;9.998;2024-03-07T15:28:31;6.60;99.90
16635;DHT22;8431;52.458;9.998;2024-03-07T15:31:00;6.90;99.90
16635;DHT22;8431;52.458;9.998;2024-03-07T15:33:31;7.10;99.90
16635;DHT22;8431;52.458;9.998;2024-03-07T15:35:58;7.10;98.80
16635;DHT22;8431;52.458;9.998;2024-03-07T15:38:25;6.70;99.20
16635;DHT22;8431;52.458;9.998;2024-03-07T15:41:00;6.50;99.80
16635;DHT22;8431;52.458;9.998;2024-03-07T15:43:28;6.40;99.90
16635;DHT22;8431;52.458;9.998;2024-03-07T15:45:55;6.20;99.90
16635;DHT22;8431;52.458;9.998;2024-03-07T15:48:23;6.10;99.90
16635;DHT22;8431;52.458;9.998;2024-03-07T15:50:51;6.00;99.90
16635;DHT22;8431;52.458;9.998;2024-03-07T15:53:18;5.90;99.90
16635;DHT22;8431;52.458;9.998;2024-03-07T15:55:45;5.90;99.90
16635;DHT22;8431;52.458;9.998;2024-03-07T15:58:13;6.00;99.90
16635;DHT22;8431;52.458;9.998;2024-03-07T16:00:43;6.20;99.90
16635;DHT22;8431;52.458;9.998;2024-03-07T16:03:12;6.20;99.90
16635;DHT22;8431;52.458;9.998;2024-03-07T16:05:41;6.30;99.90
16635;DHT22;8431;52.458;9.998;2024-03-07T16:08:10;6.20;99.90
16635;DHT22;8431;52.458;9.998;2024-03-07T16:10:37;6.30;99.90
16635;DHT22;8431;52.458;9.998;2024-03-07T16:13:06;6.20;99.90
16635;DHT22;8431;52.458;9.998;2024-03-07T16:15:35;6.10;99.90
16635;DHT22;8431;52.458;9.998;2024-03-07T16:18:02;6.10;99.90
16635;DHT22;8431;52.458;9.998;2024-03-07T16:20:32;6.10;99.90
16635;DHT22;8431;52.458;9.998;2024-03-07T16:23:00;6.00;99.90
16635;DHT22;8431;52.458;9.998;2024-03-07T16:25:30;5.90;99.90